Terminal Aerodrome Forecast
Issued by NWS

Home | Current Version | Previous Version | Text Only | Print | Product List | Glossary On
Versions: 1 2 3 4 5 6 7 8 9 10 11 12 13 14 15
000
FTUS43 KMQT 260817 AAA
TAFSAW
TAF AMD
KSAW 260817Z 2608/2706 21004KT P6SM BKN070
     FM261000 20003KT 1/2SM FG OVC002
     FM261200 18004KT 3SM BR BKN004
     FM261400 25008KT P6SM BKN020
     FM261900 04008KT 6SM -SHRA OVC015
     FM270000 01006KT 1SM -SHRA BR OVC002=

USA.gov is the U.S. government's official web portal to all federal, state and local government web resources and services.